Time;durP1;ratioP1;P1;durP2;ratioP2;P2;SDS_P1;SDS_P2;PMS_P1;PMS_P2;Temp;Humidity;BMP_temperature;BMP_pressure;BME280_temperature;BME280_humidity;BME280_pressure;Samples;Min_cycle;Max_cycle;Signal;HPM_P1;HPM_P2
2023/12/10 00:00:00;;;;;;;69.17;25.80;;;2.70;99.90;;;;;;5244708;28;20437;-48
2023/12/10 00:02:34;;;;;;;64.27;26.10;;;2.80;99.90;;;;;;5244756;28;20242;-49
2023/12/10 00:05:05;;;;;;;59.70;24.93;;;2.70;99.90;;;;;;5246239;28;20559;-51
2023/12/10 00:07:36;;;;;;;68.63;26.07;;;2.80;99.90;;;;;;5235815;28;20464;-48
2023/12/10 00:10:07;;;;;;;64.30;28.60;;;2.70;99.90;;;;;;5247434;28;20455;-48
2023/12/10 00:12:40;;;;;;;57.03;24.73;;;2.70;99.90;;;;;;5250373;28;20208;-49
2023/12/10 00:15:10;;;;;;;80.20;28.90;;;2.70;99.90;;;;;;5244933;28;20460;-51
2023/12/10 00:17:41;;;;;;;50.60;24.90;;;2.80;99.90;;;;;;5229566;28;20433;-49
2023/12/10 00:20:12;;;;;;;62.77;27.30;;;2.80;99.90;;;;;;5247198;28;20265;-53
2023/12/10 00:22:45;;;;;;;58.23;27.50;;;2.70;99.90;;;;;;5233170;28;20435;-50
2023/12/10 00:25:15;;;;;;;54.87;26.70;;;2.70;99.90;;;;;;5230508;28;20541;-50
2023/12/10 00:27:46;;;;;;;57.00;27.73;;;2.70;99.90;;;;;;5232019;28;21030;-51
2023/12/10 00:30:17;;;;;;;68.43;28.90;;;2.70;99.90;;;;;;5243200;28;20868;-50
2023/12/10 00:32:48;;;;;;;68.67;29.60;;;2.80;99.90;;;;;;5232348;28;20252;-49
2023/12/10 00:35:19;;;;;;;66.07;26.90;;;2.80;99.90;;;;;;5230860;28;20804;-50
2023/12/10 00:37:49;;;;;;;59.57;28.97;;;2.80;99.90;;;;;;5228418;28;20545;-49
2023/12/10 00:40:21;;;;;;;73.13;28.80;;;2.80;99.90;;;;;;5249002;28;20178;-49
2023/12/10 00:42:51;;;;;;;64.37;29.20;;;2.70;99.90;;;;;;5248021;28;20184;-49
2023/12/10 00:45:22;;;;;;;68.77;29.70;;;2.70;99.90;;;;;;5234610;28;20563;-49
2023/12/10 00:47:53;;;;;;;59.10;28.27;;;2.80;99.90;;;;;;5230207;28;20193;-50
2023/12/10 00:50:24;;;;;;;61.57;28.30;;;2.80;99.90;;;;;;5247506;28;20662;-49
2023/12/10 00:52:55;;;;;;;72.43;30.50;;;2.70;99.90;;;;;;5241925;28;20194;-49
2023/12/10 00:55:25;;;;;;;60.77;27.10;;;2.70;99.90;;;;;;5232151;28;20239;-49
2023/12/10 00:57:56;;;;;;;61.00;26.80;;;2.70;99.90;;;;;;5232372;28;20205;-48
2023/12/10 01:00:27;;;;;;;55.60;28.27;;;2.80;99.90;;;;;;5231439;28;20171;-48
2023/12/10 01:02:58;;;;;;;49.70;26.10;;;2.70;99.90;;;;;;5233199;28;20669;-48
2023/12/10 01:05:28;;;;;;;57.70;25.93;;;2.70;99.90;;;;;;5244191;28;20240;-50
2023/12/10 01:07:59;;;;;;;57.97;26.50;;;2.70;99.90;;;;;;5234842;28;20682;-50
2023/12/10 01:10:30;;;;;;;57.33;25.30;;;2.80;99.90;;;;;;5244627;28;20590;-50
2023/12/10 01:13:01;;;;;;;73.53;29.90;;;2.70;99.90;;;;;;5247024;28;20213;-48
2023/12/10 01:15:31;;;;;;;53.63;26.50;;;2.70;99.90;;;;;;5244628;28;20244;-48
2023/12/10 01:18:02;;;;;;;57.53;25.97;;;2.70;99.90;;;;;;5244857;28;20224;-48
2023/12/10 01:20:33;;;;;;;43.63;22.30;;;2.70;99.90;;;;;;5248448;28;20576;-50
2023/12/10 01:23:04;;;;;;;49.87;24.73;;;2.70;99.90;;;;;;5231531;28;20647;-48
2023/12/10 01:25:35;;;;;;;58.97;25.53;;;2.80;99.90;;;;;;5246058;28;20445;-48
2023/12/10 01:28:07;;;;;;;54.37;26.67;;;2.70;99.90;;;;;;5238578;28;20192;-49
2023/12/10 01:30:38;;;;;;;43.83;24.27;;;2.70;99.90;;;;;;5231879;28;20178;-49
2023/12/10 01:33:10;;;;;;;43.07;23.07;;;2.70;99.90;;;;;;5246145;28;20452;-47
2023/12/10 01:35:40;;;;;;;59.00;24.77;;;2.70;99.90;;;;;;5248592;28;20440;-47
2023/12/10 01:38:11;;;;;;;46.47;22.47;;;2.70;99.90;;;;;;5230989;28;20428;-48
2023/12/10 01:40:42;;;;;;;44.37;22.67;;;2.70;99.90;;;;;;5248510;28;20174;-47
2023/12/10 01:43:17;;;;;;;43.43;21.00;;;2.80;99.90;;;;;;5248012;28;20182;-49
2023/12/10 01:45:50;;;;;;;51.77;22.00;;;2.70;99.90;;;;;;5231473;28;20294;-48
2023/12/10 01:48:23;;;;;;;55.60;24.37;;;2.70;99.90;;;;;;5243467;28;20432;-48
2023/12/10 01:50:54;;;;;;;57.27;24.53;;;2.70;99.90;;;;;;5248088;28;20433;-47
2023/12/10 01:53:25;;;;;;;55.33;23.50;;;2.70;99.90;;;;;;5247929;28;20467;-50
2023/12/10 01:55:56;;;;;;;48.37;22.33;;;2.70;99.90;;;;;;5228439;28;20425;-49
2023/12/10 01:58:27;;;;;;;38.30;20.70;;;2.80;99.90;;;;;;5244488;28;20163;-48
2023/12/10 02:00:58;;;;;;;42.53;20.60;;;2.80;99.90;;;;;;5239971;28;20439;-48
2023/12/10 02:03:32;;;;;;;34.20;18.67;;;2.80;99.90;;;;;;5234376;28;20846;-48
2023/12/10 02:06:03;;;;;;;33.13;18.40;;;2.80;99.90;;;;;;5246749;28;20432;-48
2023/12/10 02:08:34;;;;;;;39.33;18.90;;;2.70;99.90;;;;;;5247552;28;20924;-50
2023/12/10 02:11:04;;;;;;;28.93;15.67;;;2.70;99.90;;;;;;5246211;28;20790;-49
2023/12/10 02:13:35;;;;;;;35.13;18.43;;;2.60;99.90;;;;;;5229647;28;20210;-48
2023/12/10 02:16:07;;;;;;;41.93;19.97;;;2.50;99.90;;;;;;5230481;28;20177;-48
2023/12/10 02:18:38;;;;;;;38.40;19.07;;;2.50;99.90;;;;;;5241585;28;20433;-51
2023/12/10 02:21:09;;;;;;;25.33;14.73;;;2.50;99.90;;;;;;5245112;28;20958;-49
2023/12/10 02:23:58;;;;;;;27.27;16.00;;;2.50;99.90;;;;;;5217413;28;20253;-49
2023/12/10 02:26:29;;;;;;;27.17;15.00;;;2.50;99.90;;;;;;5241632;28;20440;-50
2023/12/10 02:29:00;;;;;;;35.70;17.03;;;2.50;99.90;;;;;;5243505;28;20454;-52
2023/12/10 02:31:31;;;;;;;36.73;17.90;;;2.40;99.90;;;;;;5227925;28;20520;-49
2023/12/10 02:34:02;;;;;;;34.77;16.50;;;2.40;99.90;;;;;;5240568;28;20571;-49
2023/12/10 02:36:33;;;;;;;30.10;15.27;;;2.40;99.90;;;;;;5230442;28;20437;-49
2023/12/10 02:39:04;;;;;;;30.27;14.37;;;2.50;99.90;;;;;;5247015;28;20179;-49
2023/12/10 02:41:35;;;;;;;17.43;12.70;;;2.40;99.90;;;;;;5248846;28;20595;-48
2023/12/10 02:44:06;;;;;;;26.97;15.47;;;2.30;99.90;;;;;;5251430;28;20480;-51
2023/12/10 02:46:36;;;;;;;27.83;14.53;;;2.30;99.90;;;;;;5251480;28;20479;-50
2023/12/10 02:49:07;;;;;;;24.40;12.70;;;2.30;99.90;;;;;;5231310;28;23119;-50
2023/12/10 02:51:38;;;;;;;30.83;14.27;;;2.20;99.90;;;;;;5249311;28;20269;-50
2023/12/10 02:54:09;;;;;;;28.37;15.20;;;2.30;99.90;;;;;;5247718;28;20567;-49
2023/12/10 02:56:39;;;;;;;27.07;14.27;;;2.40;99.90;;;;;;5215837;28;20178;-48
2023/12/10 02:59:10;;;;;;;21.10;14.63;;;2.30;99.90;;;;;;5245604;28;20700;-49
2023/12/10 03:01:41;;;;;;;26.30;15.57;;;2.20;99.90;;;;;;5248181;28;20187;-49
2023/12/10 03:04:11;;;;;;;22.77;13.87;;;2.20;99.90;;;;;;5223353;22;20225;-48
2023/12/10 03:06:42;;;;;;;30.03;16.60;;;2.20;99.90;;;;;;5140797;28;20220;-48
2023/12/10 03:09:13;;;;;;;26.10;16.00;;;2.20;99.90;;;;;;5147241;28;20186;-48
2023/12/10 03:11:43;;;;;;;25.97;14.83;;;2.20;99.90;;;;;;5137553;28;20178;-48
2023/12/10 03:14:14;;;;;;;27.17;15.43;;;2.20;99.90;;;;;;5133140;28;20218;-48
2023/12/10 03:16:45;;;;;;;35.00;16.70;;;2.40;99.90;;;;;;5141499;28;20238;-48
2023/12/10 03:19:15;;;;;;;33.03;17.43;;;2.40;99.90;;;;;;5140186;28;20197;-50
2023/12/10 03:21:46;;;;;;;34.57;16.60;;;2.20;99.90;;;;;;5143087;28;20185;-48
2023/12/10 03:24:16;;;;;;;26.70;15.77;;;2.20;99.90;;;;;;5151539;28;20344;-50
2023/12/10 03:26:47;;;;;;;27.90;16.47;;;2.20;99.90;;;;;;5143177;28;20261;-48
2023/12/10 03:29:18;;;;;;;31.50;15.97;;;2.20;99.90;;;;;;5143839;28;20705;-49
2023/12/10 03:31:48;;;;;;;34.57;17.70;;;2.30;99.90;;;;;;5136874;28;20193;-48
2023/12/10 03:34:19;;;;;;;26.70;15.67;;;2.30;99.90;;;;;;5136931;28;20206;-48
2023/12/10 03:36:50;;;;;;;25.13;15.37;;;2.20;99.90;;;;;;5141156;28;20186;-47
2023/12/10 03:39:20;;;;;;;28.67;15.93;;;2.20;99.90;;;;;;5129969;28;20538;-48
2023/12/10 03:41:52;;;;;;;29.23;17.00;;;2.30;99.90;;;;;;5127468;28;20672;-50
2023/12/10 03:44:23;;;;;;;33.07;18.30;;;2.30;99.90;;;;;;5119932;28;20603;-49
2023/12/10 03:46:54;;;;;;;38.00;18.10;;;2.20;99.90;;;;;;5120252;28;20437;-52
2023/12/10 03:49:24;;;;;;;31.67;15.57;;;2.20;99.90;;;;;;5153909;28;20437;-49
2023/12/10 03:51:56;;;;;;;33.87;18.20;;;2.20;99.90;;;;;;5120693;28;20194;-48
2023/12/10 03:54:26;;;;;;;39.30;19.53;;;2.20;99.90;;;;;;5144460;28;20253;-48
2023/12/10 03:56:57;;;;;;;35.10;18.30;;;2.20;99.90;;;;;;5139435;28;20437;-50
2023/12/10 03:59:28;;;;;;;39.97;19.23;;;2.20;99.90;;;;;;5140886;28;20447;-50
2023/12/10 04:01:59;;;;;;;42.47;19.67;;;2.20;99.90;;;;;;5121080;28;20232;-49
2023/12/10 04:04:29;;;;;;;40.10;18.87;;;2.20;99.90;;;;;;5136159;28;20210;-47
2023/12/10 04:07:00;;;;;;;37.73;17.80;;;2.20;99.90;;;;;;5150433;28;20609;-48
2023/12/10 04:09:31;;;;;;;33.80;17.70;;;2.40;99.90;;;;;;5126797;28;20183;-48
2023/12/10 04:12:01;;;;;;;35.63;17.67;;;2.40;99.90;;;;;;5147102;28;20273;-46
2023/12/10 04:14:32;;;;;;;41.53;17.77;;;2.50;99.90;;;;;;5141390;28;20197;-46
2023/12/10 04:17:04;;;;;;;26.43;15.33;;;2.40;99.90;;;;;;5145913;28;20538;-47
2023/12/10 04:19:35;;;;;;;31.83;17.00;;;2.60;99.90;;;;;;5129500;28;20178;-51
2023/12/10 04:22:06;;;;;;;38.37;18.40;;;2.50;99.90;;;;;;5137958;28;20436;-47
2023/12/10 04:24:36;;;;;;;27.20;16.10;;;2.60;99.90;;;;;;5140368;28;20216;-48
2023/12/10 04:27:07;;;;;;;36.13;17.40;;;2.60;99.90;;;;;;5142436;28;20178;-46
2023/12/10 04:29:38;;;;;;;37.60;18.60;;;2.50;99.90;;;;;;5141369;28;20216;-47
2023/12/10 04:32:09;;;;;;;36.57;17.77;;;2.50;99.90;;;;;;5137682;28;20197;-48
2023/12/10 04:34:40;;;;;;;22.77;13.80;;;2.50;99.90;;;;;;5120347;28;20461;-48
2023/12/10 04:37:11;;;;;;;36.67;18.77;;;2.50;99.90;;;;;;5143103;28;20467;-47
2023/12/10 04:39:41;;;;;;;40.50;19.30;;;2.50;99.90;;;;;;5126066;28;20677;-48
2023/12/10 04:42:12;;;;;;;23.03;15.33;;;2.50;99.90;;;;;;5142433;28;20515;-48
2023/12/10 04:44:43;;;;;;;22.83;13.70;;;2.60;99.90;;;;;;5142812;28;20210;-48
2023/12/10 04:47:13;;;;;;;32.90;17.10;;;2.70;99.90;;;;;;5127995;28;20182;-49
2023/12/10 04:49:44;;;;;;;30.57;15.80;;;2.70;99.90;;;;;;5141570;28;20600;-47
2023/12/10 04:52:15;;;;;;;27.17;16.07;;;2.60;99.90;;;;;;5126933;28;20287;-49
2023/12/10 04:54:45;;;;;;;35.60;18.47;;;2.60;99.90;;;;;;5141940;28;20233;-50
2023/12/10 04:57:16;;;;;;;35.03;17.50;;;2.50;99.90;;;;;;5126054;28;20734;-48
2023/12/10 04:59:47;;;;;;;25.33;14.47;;;2.50;99.90;;;;;;5128030;28;20291;-48
2023/12/10 05:02:18;;;;;;;32.07;17.50;;;2.60;99.90;;;;;;5142966;28;20523;-48
2023/12/10 05:04:48;;;;;;;27.93;16.53;;;2.50;99.90;;;;;;5128786;28;20233;-49
2023/12/10 05:07:19;;;;;;;29.60;18.10;;;2.60;99.90;;;;;;5126852;28;20994;-48
2023/12/10 05:09:50;;;;;;;30.27;17.83;;;2.50;99.90;;;;;;5143181;28;20190;-48
2023/12/10 05:12:20;;;;;;;34.63;17.80;;;2.60;99.90;;;;;;5129164;28;20237;-49
2023/12/10 05:14:51;;;;;;;28.50;15.90;;;2.60;99.90;;;;;;5118281;28;21186;-50
2023/12/10 05:17:22;;;;;;;30.50;17.07;;;2.60;99.90;;;;;;5127576;28;20191;-51
2023/12/10 05:19:52;;;;;;;27.20;17.07;;;2.80;99.90;;;;;;5119657;28;20217;-47
2023/12/10 05:22:23;;;;;;;39.90;16.93;;;2.80;99.90;;;;;;5123545;28;20621;-48
2023/12/10 05:24:54;;;;;;;36.60;17.17;;;2.80;99.90;;;;;;5138601;28;20221;-49
2023/12/10 05:27:24;;;;;;;29.03;17.23;;;2.80;99.90;;;;;;5138375;28;20217;-50
2023/12/10 05:29:55;;;;;;;42.50;20.43;;;2.80;99.90;;;;;;5136455;28;20229;-51
2023/12/10 05:32:27;;;;;;;31.57;17.17;;;2.70;99.90;;;;;;5127446;28;20213;-48
2023/12/10 05:34:58;;;;;;;32.60;17.87;;;2.80;99.90;;;;;;5137516;28;20264;-51
2023/12/10 05:37:29;;;;;;;37.23;19.33;;;2.80;99.90;;;;;;5125167;28;20548;-48
2023/12/10 05:39:59;;;;;;;27.47;17.70;;;2.70;99.90;;;;;;5136960;28;20209;-47
2023/12/10 05:42:30;;;;;;;37.23;18.67;;;2.90;99.90;;;;;;5139313;28;20272;-48
2023/12/10 05:45:02;;;;;;;49.50;19.63;;;2.90;99.90;;;;;;5138559;28;20206;-49
2023/12/10 05:47:33;;;;;;;26.33;16.97;;;2.80;99.90;;;;;;5139150;28;20186;-49
2023/12/10 05:50:04;;;;;;;41.23;19.37;;;2.90;99.90;;;;;;5124291;28;20502;-48
2023/12/10 05:52:34;;;;;;;37.27;19.90;;;3.00;99.90;;;;;;5136220;28;20479;-48
2023/12/10 05:55:06;;;;;;;49.43;23.40;;;2.90;99.90;;;;;;5139475;28;20206;-48
2023/12/10 05:57:36;;;;;;;59.73;24.03;;;2.80;99.90;;;;;;5124929;28;20198;-48
2023/12/10 06:00:08;;;;;;;42.10;18.73;;;2.90;99.90;;;;;;5124701;28;20974;-51
2023/12/10 06:02:38;;;;;;;38.57;18.53;;;3.00;99.90;;;;;;5137918;28;20217;-48
2023/12/10 06:05:09;;;;;;;43.30;21.27;;;3.10;99.90;;;;;;5127117;28;20878;-47
2023/12/10 06:07:40;;;;;;;43.90;20.90;;;3.10;99.90;;;;;;5138798;28;20243;-47
2023/12/10 06:10:12;;;;;;;48.07;21.80;;;3.10;99.90;;;;;;5142727;28;20192;-48
2023/12/10 06:12:42;;;;;;;33.17;19.13;;;3.10;99.90;;;;;;5132692;28;20206;-50
2023/12/10 06:15:13;;;;;;;39.73;17.83;;;3.20;99.90;;;;;;5137916;28;20564;-48
2023/12/10 06:17:44;;;;;;;41.13;21.33;;;3.30;99.90;;;;;;5120431;28;20213;-49
2023/12/10 06:20:15;;;;;;;30.40;17.73;;;3.40;99.90;;;;;;5130547;28;20238;-48
2023/12/10 06:22:45;;;;;;;30.40;18.97;;;3.30;99.90;;;;;;5138033;28;20244;-49
2023/12/10 06:25:16;;;;;;;32.77;19.60;;;3.20;99.90;;;;;;5120527;28;20206;-48
2023/12/10 06:27:47;;;;;;;35.10;19.47;;;3.10;99.90;;;;;;5126601;28;20324;-48
2023/12/10 06:30:17;;;;;;;40.07;21.23;;;3.10;99.90;;;;;;5122443;28;20193;-50
2023/12/10 06:32:48;;;;;;;40.77;21.27;;;3.00;99.90;;;;;;5127340;28;20205;-47
2023/12/10 06:35:19;;;;;;;45.47;20.60;;;2.90;99.90;;;;;;5139948;28;20266;-48
2023/12/10 06:37:50;;;;;;;32.77;16.83;;;2.80;99.90;;;;;;5134415;28;20539;-47
2023/12/10 06:40:20;;;;;;;41.27;20.80;;;2.80;99.90;;;;;;5120198;28;20212;-48
2023/12/10 06:42:51;;;;;;;30.27;17.07;;;2.80;99.90;;;;;;5109048;28;20198;-47
2023/12/10 06:45:21;;;;;;;27.87;17.43;;;2.90;99.90;;;;;;5124564;28;20244;-49
2023/12/10 06:47:52;;;;;;;46.73;21.87;;;3.00;99.90;;;;;;5124428;28;20182;-48
2023/12/10 06:50:23;;;;;;;36.80;19.70;;;2.90;99.90;;;;;;5141127;28;20194;-47
2023/12/10 06:52:53;;;;;;;28.07;18.30;;;2.90;99.90;;;;;;5150049;28;20715;-49
2023/12/10 06:55:24;;;;;;;38.03;19.00;;;3.10;99.90;;;;;;5121201;28;20342;-48
2023/12/10 06:57:55;;;;;;;41.03;19.57;;;3.20;99.90;;;;;;5122530;28;20182;-48
2023/12/10 07:00:25;;;;;;;33.40;19.00;;;3.40;99.90;;;;;;5125180;28;20261;-49
2023/12/10 07:02:56;;;;;;;40.13;19.50;;;3.40;99.90;;;;;;5148609;28;20189;-50
2023/12/10 07:05:27;;;;;;;38.50;19.07;;;3.30;99.90;;;;;;5122350;28;20252;-49
2023/12/10 07:07:57;;;;;;;35.13;17.80;;;3.40;99.90;;;;;;5137139;28;20289;-50
2023/12/10 07:10:28;;;;;;;30.53;18.07;;;3.50;99.90;;;;;;5128718;28;20528;-48
2023/12/10 07:12:59;;;;;;;33.87;17.23;;;3.50;99.90;;;;;;5123204;28;20216;-51
2023/12/10 07:15:29;;;;;;;37.87;19.63;;;3.40;99.90;;;;;;5156061;28;20251;-49
2023/12/10 07:18:00;;;;;;;37.10;21.03;;;3.30;99.90;;;;;;5150608;28;20669;-48
2023/12/10 07:20:31;;;;;;;36.40;20.97;;;3.20;99.90;;;;;;5126135;28;20217;-47
2023/12/10 07:23:02;;;;;;;42.93;20.50;;;3.20;99.90;;;;;;5123248;28;20213;-48
2023/12/10 07:25:32;;;;;;;36.40;20.50;;;3.00;99.90;;;;;;5126330;28;20746;-49
2023/12/10 07:28:03;;;;;;;50.07;22.10;;;3.00;99.90;;;;;;5142688;28;20528;-47
2023/12/10 07:30:34;;;;;;;53.83;21.33;;;3.00;99.90;;;;;;5126872;28;20185;-49
2023/12/10 07:33:04;;;;;;;34.47;18.60;;;3.00;99.90;;;;;;5142469;28;20259;-49
2023/12/10 07:35:35;;;;;;;51.93;24.50;;;3.00;99.90;;;;;;5138313;28;20388;-46
2023/12/10 07:38:06;;;;;;;60.47;24.00;;;3.30;99.90;;;;;;5140249;28;20186;-46
2023/12/10 07:40:36;;;;;;;43.83;19.97;;;3.40;99.90;;;;;;5140498;28;20532;-48
2023/12/10 07:43:07;;;;;;;40.53;21.67;;;3.40;99.90;;;;;;5143086;28;20186;-48
2023/12/10 07:45:37;;;;;;;54.20;23.57;;;3.50;99.90;;;;;;5140534;28;20228;-48
2023/12/10 07:48:08;;;;;;;42.83;20.30;;;3.60;99.90;;;;;;5126656;28;20280;-47
2023/12/10 07:50:39;;;;;;;61.53;25.87;;;3.60;99.90;;;;;;5145669;28;20242;-48
2023/12/10 07:53:09;;;;;;;39.70;17.20;;;3.60;99.90;;;;;;5137607;28;20221;-48
2023/12/10 07:55:40;;;;;;;42.07;18.33;;;3.90;99.90;;;;;;5144506;28;20673;-52
2023/12/10 07:58:11;;;;;;;32.27;15.93;;;3.90;99.90;;;;;;5150739;28;20204;-48
2023/12/10 08:00:46;;;;;;;39.70;18.07;;;4.00;99.90;;;;;;5139024;28;20236;-49
2023/12/10 08:03:17;;;;;;;50.40;17.10;;;4.10;99.90;;;;;;5141540;28;20190;-50
2023/12/10 08:05:48;;;;;;;20.67;13.47;;;4.10;99.90;;;;;;5142515;28;21003;-49
2023/12/10 08:08:18;;;;;;;27.27;15.00;;;4.10;99.90;;;;;;5146194;28;20187;-51
2023/12/10 08:10:50;;;;;;;22.03;13.17;;;4.20;99.90;;;;;;5132160;28;20203;-49
2023/12/10 08:13:21;;;;;;;28.27;13.00;;;4.30;99.90;;;;;;5124437;28;20212;-50
2023/12/10 08:15:51;;;;;;;26.10;12.27;;;4.50;99.90;;;;;;5139812;28;20466;-50
2023/12/10 08:18:22;;;;;;;25.50;12.97;;;4.50;99.90;;;;;;5139798;28;20970;-50
2023/12/10 08:20:53;;;;;;;28.23;12.37;;;4.50;99.90;;;;;;5126179;28;20218;-51
2023/12/10 08:23:23;;;;;;;18.57;10.87;;;4.50;99.90;;;;;;5138198;28;20188;-51
2023/12/10 08:25:54;;;;;;;33.83;13.30;;;4.60;99.90;;;;;;5129476;28;20199;-50
2023/12/10 08:28:24;;;;;;;16.00;9.97;;;4.60;99.90;;;;;;5138827;28;20536;-51
2023/12/10 08:30:55;;;;;;;22.47;10.70;;;4.60;99.90;;;;;;5139591;28;20648;-51
2023/12/10 08:33:26;;;;;;;32.07;13.10;;;4.70;99.90;;;;;;5135255;28;20192;-50
2023/12/10 08:35:56;;;;;;;22.53;10.40;;;4.70;99.90;;;;;;5127528;28;20262;-50
2023/12/10 08:38:27;;;;;;;44.07;13.40;;;4.80;99.90;;;;;;5125153;28;20272;-51
2023/12/10 08:40:58;;;;;;;29.20;12.83;;;4.80;99.90;;;;;;5131801;28;20218;-51
2023/12/10 08:43:30;;;;;;;35.43;15.73;;;4.90;99.90;;;;;;5145776;28;20753;-53
2023/12/10 08:46:01;;;;;;;28.93;12.77;;;5.00;99.90;;;;;;5123760;28;20185;-52
2023/12/10 08:48:31;;;;;;;38.73;14.33;;;5.10;99.90;;;;;;5141656;28;20449;-53
2023/12/10 08:51:03;;;;;;;34.60;12.27;;;5.20;99.90;;;;;;5138902;28;20378;-51
2023/12/10 08:53:34;;;;;;;40.93;15.00;;;5.30;99.90;;;;;;5140086;28;20208;-50
2023/12/10 08:56:05;;;;;;;36.57;12.27;;;5.30;99.90;;;;;;5134744;28;20807;-51
2023/12/10 08:58:36;;;;;;;23.07;13.23;;;5.40;99.90;;;;;;5125768;28;20178;-50
2023/12/10 09:01:06;;;;;;;43.73;17.43;;;5.50;99.90;;;;;;5119724;28;20433;-51
2023/12/10 09:03:38;;;;;;;31.43;14.00;;;5.50;99.90;;;;;;5140203;28;20186;-52
2023/12/10 09:06:09;;;;;;;27.13;10.93;;;5.60;99.90;;;;;;5211332;23;20229;-52
2023/12/10 09:08:40;;;;;;;17.87;8.87;;;5.60;99.90;;;;;;5226451;28;20464;-50
2023/12/10 09:11:10;;;;;;;19.60;9.10;;;5.70;99.90;;;;;;5209663;28;20437;-50
2023/12/10 09:13:41;;;;;;;31.03;11.07;;;5.80;99.90;;;;;;5210434;28;20209;-49
2023/12/10 09:16:14;;;;;;;21.20;9.97;;;6.10;99.90;;;;;;5225440;28;20195;-48
2023/12/10 09:18:44;;;;;;;26.67;12.17;;;6.30;99.90;;;;;;5225891;28;20559;-49
2023/12/10 09:21:15;;;;;;;24.40;10.57;;;6.50;99.90;;;;;;5226551;28;20425;-49
2023/12/10 09:23:46;;;;;;;31.47;10.30;;;6.50;99.90;;;;;;5227524;28;20671;-48
2023/12/10 09:26:17;;;;;;;33.67;9.03;;;6.50;99.90;;;;;;5227030;28;20199;-49
2023/12/10 09:28:47;;;;;;;30.07;8.23;;;6.50;99.90;;;;;;5227031;28;20210;-50
2023/12/10 09:31:18;;;;;;;19.83;8.03;;;6.40;99.90;;;;;;5226436;28;20669;-49
2023/12/10 09:33:49;;;;;;;20.30;7.70;;;6.30;99.90;;;;;;5233315;28;20203;-51
2023/12/10 09:36:19;;;;;;;31.13;8.40;;;6.40;99.90;;;;;;5223079;28;20191;-49
2023/12/10 09:38:50;;;;;;;37.47;11.37;;;6.30;99.90;;;;;;5218469;28;20175;-52
2023/12/10 09:41:21;;;;;;;32.00;10.30;;;6.30;99.90;;;;;;5223221;28;20186;-49
2023/12/10 09:43:51;;;;;;;26.53;10.17;;;6.30;99.90;;;;;;5224611;28;20277;-50
2023/12/10 09:46:22;;;;;;;24.60;8.63;;;6.30;99.90;;;;;;5225567;28;20206;-49
2023/12/10 09:48:53;;;;;;;24.07;7.53;;;6.40;99.90;;;;;;5226883;28;20655;-49
2023/12/10 09:51:24;;;;;;;34.97;9.00;;;6.40;99.90;;;;;;5225181;28;20185;-48
2023/12/10 09:53:54;;;;;;;48.50;9.13;;;6.40;99.90;;;;;;5214830;28;20356;-51
2023/12/10 09:56:25;;;;;;;18.43;6.50;;;6.60;99.90;;;;;;5221473;28;20175;-49
2023/12/10 09:58:56;;;;;;;19.73;6.00;;;6.70;99.90;;;;;;5217080;28;20229;-49
2023/12/10 10:01:27;;;;;;;31.23;6.00;;;6.80;99.90;;;;;;5218136;28;21012;-49
2023/12/10 10:03:58;;;;;;;23.17;6.50;;;6.70;99.90;;;;;;5224016;28;20247;-50
2023/12/10 10:06:29;;;;;;;27.10;6.93;;;6.80;99.90;;;;;;5217292;28;20194;-51
2023/12/10 10:09:00;;;;;;;12.67;5.33;;;6.80;99.90;;;;;;5227220;28;20464;-51
2023/12/10 10:11:30;;;;;;;53.47;13.57;;;6.80;99.90;;;;;;5213776;28;20282;-50
2023/12/10 10:14:01;;;;;;;47.13;13.30;;;6.90;99.90;;;;;;5221545;28;20215;-53
2023/12/10 10:16:32;;;;;;;36.13;10.27;;;7.10;99.90;;;;;;5219638;28;20182;-52
2023/12/10 10:19:03;;;;;;;48.00;13.37;;;7.20;99.90;;;;;;5218018;28;20238;-50
2023/12/10 10:21:34;;;;;;;51.57;11.43;;;7.20;99.90;;;;;;5218843;28;20469;-49
2023/12/10 10:24:05;;;;;;;26.73;9.37;;;7.30;99.90;;;;;;5217165;28;20194;-49
2023/12/10 10:26:37;;;;;;;33.37;8.10;;;7.30;99.90;;;;;;5217031;28;20441;-49
2023/12/10 10:29:08;;;;;;;23.23;6.27;;;7.30;99.90;;;;;;5220343;28;20433;-50
2023/12/10 10:31:39;;;;;;;46.43;10.97;;;7.30;99.90;;;;;;5219217;28;20437;-48
2023/12/10 10:34:10;;;;;;;27.60;9.20;;;7.20;99.90;;;;;;5220606;28;20241;-49
2023/12/10 10:36:41;;;;;;;26.93;7.30;;;7.20;99.90;;;;;;5219771;28;20907;-49
2023/12/10 10:39:11;;;;;;;29.63;6.70;;;7.20;99.90;;;;;;5220595;28;20178;-50
2023/12/10 10:41:42;;;;;;;22.53;5.77;;;7.20;99.90;;;;;;5218003;28;20561;-49
2023/12/10 10:44:13;;;;;;;23.80;6.70;;;7.10;99.90;;;;;;5224233;28;20217;-49
2023/12/10 10:46:44;;;;;;;40.47;5.30;;;7.20;99.90;;;;;;5225036;28;20810;-49
2023/12/10 10:49:15;;;;;;;22.50;5.23;;;7.20;99.90;;;;;;5225166;28;20179;-51
2023/12/10 10:51:46;;;;;;;15.23;3.90;;;7.20;99.90;;;;;;5222068;28;20443;-49
2023/12/10 10:54:18;;;;;;;27.73;5.07;;;7.20;99.90;;;;;;5229942;28;20873;-50
2023/12/10 10:56:49;;;;;;;16.23;5.17;;;7.10;99.90;;;;;;5224998;28;20444;-49
2023/12/10 10:59:30;;;;;;;29.90;6.53;;;7.10;99.90;;;;;;5227764;28;20571;-50
2023/12/10 11:02:11;;;;;;;17.63;5.23;;;7.10;99.90;;;;;;5225584;28;20512;-50
2023/12/10 11:04:42;;;;;;;24.23;4.73;;;7.10;99.90;;;;;;5225706;28;20465;-49
2023/12/10 11:07:15;;;;;;;21.30;5.33;;;7.10;99.90;;;;;;5233884;28;20494;-49
2023/12/10 11:09:58;;;;;;;13.77;4.70;;;7.20;99.90;;;;;;5226900;28;20187;-49
2023/12/10 11:12:41;;;;;;;29.03;4.57;;;7.20;99.90;;;;;;5226436;28;20482;-50
2023/12/10 11:15:15;;;;;;;13.50;4.27;;;7.20;99.90;;;;;;5228794;28;20457;-51
2023/12/10 11:17:52;;;;;;;33.10;6.93;;;7.10;99.90;;;;;;5225581;28;20446;-51
2023/12/10 11:20:40;;;;;;;23.40;6.13;;;7.10;99.90;;;;;;5209194;28;20784;-51
2023/12/10 11:23:16;;;;;;;41.67;7.30;;;7.10;99.90;;;;;;5223780;28;20422;-50
2023/12/10 11:25:48;;;;;;;36.27;7.10;;;7.10;99.90;;;;;;5228877;28;21246;-49
2023/12/10 11:28:20;;;;;;;13.23;5.00;;;7.10;99.90;;;;;;5223092;28;20492;-49
2023/12/10 11:30:51;;;;;;;22.23;5.50;;;7.10;99.90;;;;;;5227585;28;20425;-49
2023/12/10 11:33:22;;;;;;;22.50;5.70;;;7.20;99.90;;;;;;5233216;28;20472;-50
2023/12/10 11:35:57;;;;;;;20.60;5.50;;;7.10;99.90;;;;;;5231457;28;20201;-50
2023/12/10 11:38:27;;;;;;;23.80;5.67;;;7.10;99.90;;;;;;5222380;28;20611;-50
2023/12/10 11:40:58;;;;;;;25.53;5.10;;;7.10;99.90;;;;;;5228450;28;20442;-49
2023/12/10 11:43:29;;;;;;;18.90;5.10;;;7.10;99.90;;;;;;5227844;28;20190;-50
2023/12/10 11:46:00;;;;;;;18.10;5.17;;;7.10;99.90;;;;;;5226135;28;20528;-49
2023/12/10 11:48:31;;;;;;;21.93;5.23;;;7.10;99.90;;;;;;5230419;28;20241;-49
2023/12/10 11:51:02;;;;;;;29.00;5.93;;;7.10;99.90;;;;;;5226072;28;20218;-50
2023/12/10 11:53:32;;;;;;;29.63;6.80;;;7.20;99.90;;;;;;5222534;28;20454;-48
2023/12/10 11:56:04;;;;;;;20.83;5.87;;;7.10;99.90;;;;;;5228835;28;20453;-49
2023/12/10 11:58:35;;;;;;;31.43;5.97;;;7.10;99.90;;;;;;5227196;28;20175;-50
2023/12/10 12:01:07;;;;;;;19.20;4.90;;;7.20;99.90;;;;;;5240740;28;20430;-49
2023/12/10 12:03:38;;;;;;;24.60;6.00;;;7.10;99.90;;;;;;5223980;28;20437;-50
2023/12/10 12:06:09;;;;;;;11.60;4.00;;;7.10;99.90;;;;;;5227783;28;20473;-49
2023/12/10 12:08:40;;;;;;;16.53;3.97;;;7.10;99.90;;;;;;5229237;28;20465;-49
2023/12/10 12:11:11;;;;;;;41.70;6.43;;;7.00;99.90;;;;;;5230554;28;20464;-52
2023/12/10 12:13:41;;;;;;;25.03;5.03;;;7.10;99.90;;;;;;5223674;28;20246;-52
2023/12/10 12:16:12;;;;;;;22.27;4.13;;;7.00;99.90;;;;;;5224490;28;20547;-52
2023/12/10 12:18:44;;;;;;;26.90;8.03;;;7.00;99.90;;;;;;5223013;28;20677;-51
2023/12/10 12:21:15;;;;;;;33.33;7.57;;;7.10;99.90;;;;;;5230406;28;20186;-52
2023/12/10 12:23:45;;;;;;;31.93;10.20;;;7.20;99.90;;;;;;5226652;28;20433;-51
2023/12/10 12:26:16;;;;;;;35.27;10.93;;;7.20;99.90;;;;;;5219507;28;20882;-51
2023/12/10 12:28:47;;;;;;;36.40;8.10;;;7.30;99.90;;;;;;5227721;28;20186;-50
2023/12/10 12:31:18;;;;;;;23.53;10.57;;;7.20;99.90;;;;;;5225435;28;20244;-51
2023/12/10 12:33:48;;;;;;;30.87;9.43;;;7.20;99.90;;;;;;5224988;28;20222;-51
2023/12/10 12:36:19;;;;;;;18.93;5.43;;;7.20;99.90;;;;;;5222563;28;20199;-51
2023/12/10 12:38:50;;;;;;;30.80;7.63;;;7.10;99.90;;;;;;5227979;28;20273;-51
2023/12/10 12:41:21;;;;;;;21.10;5.77;;;7.10;99.90;;;;;;5216934;28;20175;-52
2023/12/10 12:43:52;;;;;;;14.03;5.13;;;7.00;99.90;;;;;;5221865;28;21014;-52
2023/12/10 12:46:22;;;;;;;11.00;4.40;;;7.00;99.90;;;;;;5221600;28;20202;-50
2023/12/10 12:48:53;;;;;;;17.43;5.40;;;7.00;99.90;;;;;;5225330;28;20467;-50
2023/12/10 12:51:24;;;;;;;22.97;5.17;;;6.90;99.90;;;;;;5227739;28;20182;-51
2023/12/10 12:53:54;;;;;;;26.67;5.43;;;7.10;99.90;;;;;;5223942;28;20199;-52
2023/12/10 12:56:25;;;;;;;21.53;6.80;;;7.00;99.90;;;;;;5224237;28;20544;-50